Mobile Regional Airport Mobile US
ICAO: KMOB
IATA: MOB
Category: Large
Scheduled Services: Yes

Elevation: 219 ft
TransAlt. 18000 ft.

Airport Communications:
APP/DEP:118.5
ATIS:124.75
CLNC DEL:119.85
CTAF:118.3
GND:121.9
ARNG OPS:41.05
AIR:34.5
ANNISTON RDO:122.2
TWR:118.3
UNICOM:122.95

KMOB Zoom In..

If Map Doesn't Load, Click Here

Runways:

(A) RW 14 length 8502 ft width 150 ft
ILS 109.90 / hdg 145

(B) RW 18 length 4376 ft width 150 ft
---- / hdg 181

(C) RW 32 length 8502 ft width 150 ft
ILS 111.50 / hdg 325

(D) RW 36 length 4376 ft width 150 ft
---- / hdg 1

Location; KMOB
Day. 23 / Time. 20.56 Zulu
* Altimeter: 29.93
* Temperature: 31° c. 87.8°f.
* Wind from: 120° Speed 09 kn.
Dewpoint: 22° c.
Visibility: 10 Statute Miles.
Clouds: Few 5000 ft.
Clouds: Scattered 25000 ft.

KMOB 232056Z 12009KT 10SM FEW050 SCT250 31/22 A2993 RMK AO2 SLP131 T03110217 56023


Wind From 120°
Speed 09 kn.

 
 
jpsmedia.com for Web Design worldairports.se 2018   terms of use